createdAt,value
2018-03-21T00:02:23.384Z,22.15
2018-03-21T00:04:51.733Z,29.50
2018-03-21T00:07:20.103Z,25.08
2018-03-21T00:09:48.423Z,20.45
2018-03-21T00:12:16.797Z,22.95
2018-03-21T00:14:45.148Z,24.33
2018-03-21T00:17:13.656Z,27.27
2018-03-21T00:19:42.039Z,26.00
2018-03-21T00:22:10.361Z,20.58
2018-03-21T00:24:38.742Z,26.10
2018-03-21T00:27:07.120Z,23.65
2018-03-21T00:29:35.463Z,18.87
2018-03-21T00:32:03.796Z,25.98
2018-03-21T00:34:32.944Z,21.60
2018-03-21T00:37:01.271Z,23.15
2018-03-21T00:39:29.602Z,23.38
2018-03-21T00:41:57.967Z,25.08
2018-03-21T00:44:26.294Z,26.42
2018-03-21T00:46:55.309Z,17.50
2018-03-21T00:49:23.774Z,11.95
2018-03-21T00:51:52.106Z,22.10
2018-03-21T00:54:20.426Z,13.15
2018-03-21T00:56:50.768Z,24.10
2018-03-21T00:59:19.093Z,16.55
2018-03-21T01:01:47.443Z,20.50
2018-03-21T01:04:15.756Z,18.60
2018-03-21T01:06:44.073Z,16.67
2018-03-21T01:09:12.449Z,19.95
2018-03-21T01:11:40.776Z,19.90
2018-03-21T01:14:09.101Z,21.00
2018-03-21T01:16:38.245Z,17.02
2018-03-21T01:19:06.572Z,15.70
2018-03-21T01:21:34.908Z,19.30
2018-03-21T01:24:04.180Z,21.20
2018-03-21T01:26:32.495Z,21.00
2018-03-21T01:29:00.998Z,17.50
2018-03-21T01:31:29.360Z,21.40
2018-03-21T01:33:58.196Z,17.95
2018-03-21T01:36:26.582Z,16.27
2018-03-21T01:38:55.673Z,18.60
2018-03-21T01:41:24.816Z,14.77
2018-03-21T01:43:53.161Z,19.05
2018-03-21T01:46:21.501Z,13.70
2018-03-21T01:48:50.111Z,18.23
2018-03-21T01:51:18.469Z,17.83
2018-03-21T01:53:47.586Z,13.38
2018-03-21T01:56:16.745Z,10.80
2018-03-21T01:58:45.134Z,13.85
2018-03-21T02:01:13.513Z,15.18
2018-03-21T02:03:41.848Z,11.23
2018-03-21T02:06:10.176Z,16.48
2018-03-21T02:08:38.593Z,15.88
2018-03-21T02:11:07.234Z,18.23
2018-03-21T02:13:35.572Z,12.70
2018-03-21T02:16:03.902Z,16.02
2018-03-21T02:18:33.385Z,15.70
2018-03-21T02:21:01.713Z,12.65
2018-03-21T02:23:30.058Z,15.90
2018-03-21T02:26:01.772Z,14.73
2018-03-21T02:28:30.098Z,10.15
2018-03-21T02:30:58.429Z,13.70
2018-03-21T02:33:27.126Z,17.20
2018-03-21T02:35:55.604Z,11.68
2018-03-21T02:38:24.122Z,13.07
2018-03-21T02:40:53.300Z,19.58
2018-03-21T02:43:21.632Z,12.75
2018-03-21T02:45:49.989Z,17.00
2018-03-21T02:48:19.189Z,18.02
2018-03-21T02:50:47.524Z,15.52
2018-03-21T02:53:15.901Z,14.10
2018-03-21T02:55:44.245Z,14.00
2018-03-21T02:58:12.560Z,16.08
2018-03-21T03:00:41.016Z,15.77
2018-03-21T03:03:09.340Z,14.30
2018-03-21T03:05:37.700Z,12.68
2018-03-21T03:08:06.487Z,15.63
2018-03-21T03:10:35.412Z,11.77
2018-03-21T03:13:03.734Z,15.98
2018-03-21T03:15:32.071Z,17.33
2018-03-21T03:18:00.579Z,16.40
2018-03-21T03:20:29.080Z,15.05
2018-03-21T03:22:57.611Z,10.52
2018-03-21T03:25:26.000Z,18.50
2018-03-21T03:27:54.329Z,14.60
2018-03-21T03:30:22.685Z,16.45
2018-03-21T03:32:51.016Z,15.55
2018-03-21T03:35:19.360Z,16.42
2018-03-21T03:37:47.680Z,14.68
2018-03-21T03:40:16.808Z,18.12
2018-03-21T03:42:45.129Z,31.00
2018-03-21T03:45:13.913Z,17.25
2018-03-21T03:47:42.236Z,14.32
2018-03-21T03:50:11.342Z,14.70
2018-03-21T03:52:39.696Z,17.08
2018-03-21T03:55:08.474Z,16.52
2018-03-21T03:57:36.879Z,19.40
2018-03-21T04:00:05.923Z,22.58
2018-03-21T04:02:34.423Z,18.65
2018-03-21T04:05:02.951Z,14.90
2018-03-21T04:07:31.392Z,20.90
2018-03-21T04:10:00.209Z,17.87
2018-03-21T04:12:29.096Z,13.55
2018-03-21T04:14:58.221Z,17.35
2018-03-21T04:17:26.942Z,20.50
2018-03-21T04:19:55.301Z,19.80
2018-03-21T04:22:23.779Z,17.23
2018-03-21T04:24:52.105Z,19.45
2018-03-21T04:27:21.216Z,16.40
2018-03-21T04:29:50.302Z,23.40
2018-03-21T04:32:19.431Z,17.70
2018-03-21T04:34:47.750Z,21.50
2018-03-21T04:37:16.116Z,17.50
2018-03-21T04:39:44.455Z,22.85
2018-03-21T04:42:13.240Z,20.98
2018-03-21T04:44:41.586Z,18.15
2018-03-21T04:47:11.061Z,22.87
2018-03-21T04:49:39.564Z,21.75
2018-03-21T04:52:08.511Z,24.05
2018-03-21T04:54:37.616Z,19.62
2018-03-21T04:57:05.996Z,18.50
2018-03-21T04:59:34.321Z,19.67
2018-03-21T05:02:02.643Z,15.00
2018-03-21T05:04:30.984Z,22.42
2018-03-21T05:06:59.310Z,16.90
2018-03-21T05:09:28.031Z,19.98
2018-03-21T05:11:56.348Z,22.73
2018-03-21T05:14:24.527Z,30.08
2018-03-21T05:16:52.904Z,20.33
2018-03-21T05:19:21.282Z,22.90
2018-03-21T05:21:49.608Z,18.77
2018-03-21T05:24:18.170Z,18.73
2018-03-21T05:26:46.464Z,25.50
2018-03-21T05:29:15.417Z,24.65
2018-03-21T05:31:43.779Z,23.35
2018-03-21T05:34:12.861Z,30.25
2018-03-21T05:36:41.943Z,22.83
2018-03-21T05:39:10.972Z,27.95
2018-03-21T05:41:39.288Z,32.10
2018-03-21T05:44:07.604Z,25.88
2018-03-21T05:46:37.221Z,26.95
2018-03-21T05:49:05.589Z,28.83
2018-03-21T05:51:33.908Z,24.33
2018-03-21T05:54:02.333Z,25.12
2018-03-21T05:56:32.365Z,27.52
2018-03-21T05:59:01.287Z,27.35
2018-03-21T06:01:33.011Z,25.62
2018-03-21T06:04:01.362Z,27.85
2018-03-21T06:06:30.284Z,27.67
2018-03-21T06:08:58.608Z,24.75
2018-03-21T06:11:26.934Z,26.12
2018-03-21T06:13:55.294Z,28.23
2018-03-21T06:16:23.788Z,27.23
2018-03-21T06:18:52.129Z,25.73
2018-03-21T06:21:20.479Z,22.45
2018-03-21T06:23:48.899Z,21.37
2018-03-21T06:26:17.254Z,17.10
2018-03-21T06:28:45.573Z,21.15
2018-03-21T06:31:13.925Z,14.82
2018-03-21T06:33:42.327Z,22.98
2018-03-21T06:36:10.652Z,15.00
2018-03-21T06:38:38.972Z,17.95
2018-03-21T06:41:07.896Z,15.37
2018-03-21T06:43:36.984Z,18.50
2018-03-21T06:46:05.292Z,15.23
2018-03-21T06:48:34.613Z,15.17
2018-03-21T06:51:03.011Z,20.30
2018-03-21T06:53:32.051Z,15.65
2018-03-21T06:56:01.176Z,17.90
2018-03-21T06:58:29.740Z,17.27
2018-03-21T07:00:58.065Z,18.17
2018-03-21T07:03:26.473Z,17.83
2018-03-21T07:05:54.928Z,22.10
2018-03-21T07:08:23.240Z,20.83
2018-03-21T07:10:51.587Z,17.77
2018-03-21T07:13:19.896Z,16.70
2018-03-21T07:16:08.932Z,16.80
2018-03-21T07:18:37.242Z,11.90
2018-03-21T07:21:05.552Z,14.33
2018-03-21T07:23:33.895Z,15.00
2018-03-21T07:26:02.264Z,14.23
2018-03-21T07:28:30.592Z,13.80
2018-03-21T07:30:59.076Z,13.27
2018-03-21T07:33:28.293Z,11.53
2018-03-21T07:35:56.624Z,14.73
2018-03-21T07:38:25.292Z,12.43
2018-03-21T07:40:53.627Z,11.80
2018-03-21T07:43:21.936Z,14.13
2018-03-21T07:45:50.755Z,12.60
2018-03-21T07:48:19.061Z,10.93
2018-03-21T07:50:47.410Z,13.00
2018-03-21T07:53:16.521Z,10.73
2018-03-21T07:55:45.680Z,11.10
2018-03-21T07:58:15.475Z,14.73
2018-03-21T08:00:43.800Z,10.57
2018-03-21T08:03:12.838Z,12.57
2018-03-21T08:05:41.903Z,11.43
2018-03-21T08:08:10.223Z,10.80
2018-03-21T08:10:38.573Z,14.20
2018-03-21T08:13:07.217Z,12.57
2018-03-21T08:15:36.683Z,9.27
2018-03-21T08:18:05.116Z,11.00
2018-03-21T08:20:33.415Z,13.63
2018-03-21T08:23:01.728Z,9.77
2018-03-21T08:25:30.089Z,11.43
2018-03-21T08:28:01.297Z,7.23
2018-03-21T08:30:29.636Z,8.20
2018-03-21T08:32:57.992Z,9.40
2018-03-21T08:35:26.304Z,7.60
2018-03-21T08:37:54.624Z,8.13
2018-03-21T08:40:23.348Z,6.93
2018-03-21T08:42:51.656Z,6.30
2018-03-21T08:45:19.963Z,8.70
2018-03-21T08:47:48.324Z,6.90
2018-03-21T08:50:16.636Z,12.40
2018-03-21T08:52:45.856Z,6.60
2018-03-21T08:55:14.198Z,11.60
2018-03-21T08:57:42.523Z,8.80
2018-03-21T09:00:10.890Z,10.30
2018-03-21T09:02:39.447Z,9.73
2018-03-21T09:05:07.787Z,9.23
2018-03-21T09:07:36.316Z,9.10
2018-03-21T09:10:04.619Z,8.23
2018-03-21T09:12:32.938Z,11.20
2018-03-21T09:15:03.528Z,6.00
2018-03-21T09:17:32.014Z,9.67
2018-03-21T09:20:01.119Z,7.50
2018-03-21T09:22:30.537Z,5.43
2018-03-21T09:24:59.901Z,10.37
2018-03-21T09:27:28.330Z,7.53
2018-03-21T09:29:57.231Z,9.23
2018-03-21T09:32:25.552Z,4.70
2018-03-21T09:34:53.851Z,4.80
2018-03-21T09:37:23.328Z,8.00
2018-03-21T09:39:51.600Z,5.57
2018-03-21T09:42:19.934Z,7.17
2018-03-21T09:44:48.303Z,4.93
2018-03-21T09:47:17.088Z,4.40
2018-03-21T09:49:45.458Z,5.10
2018-03-21T09:52:14.044Z,7.37
2018-03-21T09:54:43.115Z,5.60
2018-03-21T09:57:11.700Z,6.87
2018-03-21T09:59:40.500Z,7.00
2018-03-21T10:02:08.829Z,5.03
2018-03-21T10:04:37.563Z,4.83
2018-03-21T10:07:05.880Z,8.47
2018-03-21T10:09:34.728Z,6.07
2018-03-21T10:12:03.092Z,8.53
2018-03-21T10:14:31.392Z,7.13
2018-03-21T10:16:59.696Z,5.20
2018-03-21T10:19:31.100Z,14.87
2018-03-21T10:21:59.282Z,3.47
2018-03-21T10:24:27.380Z,6.40
2018-03-21T10:26:55.692Z,6.77
2018-03-21T10:29:25.176Z,6.53
2018-03-21T10:31:53.479Z,7.50
2018-03-21T10:34:22.266Z,4.80
2018-03-21T10:36:51.496Z,6.40
2018-03-21T10:39:20.596Z,10.60
2018-03-21T10:41:48.827Z,6.50
2018-03-21T10:44:17.164Z,9.43
2018-03-21T10:46:45.966Z,5.23
2018-03-21T10:49:14.430Z,7.30
2018-03-21T10:51:43.478Z,4.23
2018-03-21T10:54:11.911Z,5.80
2018-03-21T10:56:41.147Z,6.80
2018-03-21T10:59:09.989Z,5.63
2018-03-21T11:01:40.676Z,5.83
2018-03-21T11:04:09.045Z,10.30
2018-03-21T11:06:39.829Z,4.20
2018-03-21T11:09:08.025Z,10.70
2018-03-21T11:11:37.922Z,4.13
2018-03-21T11:14:06.399Z,7.47
2018-03-21T11:16:35.194Z,5.70
2018-03-21T11:19:03.535Z,4.63
2018-03-21T11:21:31.845Z,6.33
2018-03-21T11:24:00.214Z,5.97
2018-03-21T11:26:29.027Z,4.53
2018-03-21T11:28:57.449Z,4.73
2018-03-21T11:31:25.820Z,3.70
2018-03-21T11:33:55.224Z,5.40
2018-03-21T11:36:23.531Z,5.93
2018-03-21T11:38:51.868Z,6.43
2018-03-21T11:41:20.790Z,6.03
2018-03-21T11:43:49.187Z,5.00
2018-03-21T11:46:17.547Z,5.17
2018-03-21T11:48:45.852Z,5.90
2018-03-21T11:51:15.697Z,6.37
2018-03-21T11:53:44.080Z,8.13
2018-03-21T11:56:12.421Z,5.83
2018-03-21T11:58:41.933Z,5.80
2018-03-21T12:01:10.928Z,5.93
2018-03-21T12:03:39.892Z,4.00
2018-03-21T12:06:08.212Z,4.80
2018-03-21T12:08:37.425Z,4.70
2018-03-21T12:11:06.345Z,3.40
2018-03-21T12:13:35.496Z,6.80
2018-03-21T12:16:03.972Z,6.07
2018-03-21T12:18:32.952Z,4.93
2018-03-21T12:21:01.743Z,3.30
2018-03-21T12:23:32.832Z,5.70
2018-03-21T12:26:01.215Z,4.23
2018-03-21T12:28:29.523Z,6.50
2018-03-21T12:30:58.428Z,3.90
2018-03-21T12:33:27.388Z,3.53
2018-03-21T12:35:56.525Z,4.57
2018-03-21T12:38:25.911Z,6.23
2018-03-21T12:40:54.820Z,4.97
2018-03-21T12:43:23.615Z,7.13
2018-03-21T12:45:52.997Z,6.80
2018-03-21T12:48:22.645Z,3.37
2018-03-21T12:50:51.220Z,5.40
2018-03-21T12:53:19.597Z,4.83
2018-03-21T12:55:48.708Z,8.07
2018-03-21T12:58:17.056Z,5.00
2018-03-21T13:00:46.771Z,4.43
2018-03-21T13:03:15.735Z,5.83
2018-03-21T13:05:44.816Z,4.17
2018-03-21T13:08:13.172Z,4.83
2018-03-21T13:10:42.101Z,3.57
2018-03-21T13:13:10.413Z,6.00
2018-03-21T13:15:39.249Z,6.33
2018-03-21T13:18:08.764Z,4.50
2018-03-21T13:20:37.252Z,3.83
2018-03-21T13:23:06.277Z,4.13
2018-03-21T13:25:34.509Z,7.23
2018-03-21T13:28:02.808Z,5.20
2018-03-21T13:30:31.673Z,4.33
2018-03-21T13:33:00.040Z,6.37
2018-03-21T13:35:28.624Z,4.97
2018-03-21T13:37:57.770Z,4.87
2018-03-21T13:40:28.076Z,6.43
2018-03-21T13:42:56.435Z,6.70
2018-03-21T13:45:24.672Z,6.30
2018-03-21T13:47:54.579Z,6.30
2018-03-21T13:50:22.920Z,5.33
2018-03-21T13:52:51.227Z,4.83
2018-03-21T13:55:20.272Z,5.67
2018-03-21T13:57:50.272Z,8.50
2018-03-21T14:00:18.557Z,3.90
2018-03-21T14:02:47.172Z,5.33
2018-03-21T14:05:15.583Z,6.53
2018-03-21T14:07:45.177Z,6.07
2018-03-21T14:10:15.073Z,4.97
2018-03-21T14:12:43.377Z,5.27
2018-03-21T14:15:12.652Z,3.73
2018-03-21T14:17:42.000Z,4.17
2018-03-21T14:20:11.150Z,18.73
2018-03-21T14:22:39.919Z,12.77
2018-03-21T14:25:08.517Z,7.37
2018-03-21T14:27:36.897Z,6.23
2018-03-21T14:30:05.248Z,6.50
2018-03-21T14:32:33.520Z,4.37
2018-03-21T14:35:01.884Z,4.23
2018-03-21T14:37:30.237Z,5.90
2018-03-21T14:39:58.877Z,5.33
2018-03-21T14:42:27.177Z,8.80
2018-03-21T14:44:55.691Z,3.80
2018-03-21T14:47:24.823Z,4.83
2018-03-21T14:49:53.856Z,5.00
2018-03-21T14:52:22.470Z,6.00
2018-03-21T14:54:51.543Z,6.47
2018-03-21T14:57:19.887Z,5.40
2018-03-21T14:59:48.706Z,5.77
2018-03-21T15:02:17.008Z,8.07
2018-03-21T15:04:45.496Z,4.57
2018-03-21T15:07:14.560Z,4.20
2018-03-21T15:09:43.964Z,4.03
2018-03-21T15:12:12.274Z,3.60
2018-03-21T15:14:40.615Z,4.13
2018-03-21T15:17:09.161Z,3.40
2018-03-21T15:19:37.932Z,3.37
2018-03-21T15:22:06.240Z,4.40
2018-03-21T15:24:34.599Z,5.67
2018-03-21T15:27:03.101Z,3.20
2018-03-21T15:29:32.020Z,4.83
2018-03-21T15:32:00.336Z,3.27
2018-03-21T15:34:28.744Z,4.17
2018-03-21T15:36:56.871Z,3.90
2018-03-21T15:39:27.444Z,3.93
2018-03-21T15:41:56.489Z,4.17
2018-03-21T15:44:25.618Z,6.03
2018-03-21T15:46:54.027Z,3.43
2018-03-21T15:49:22.388Z,3.50
2018-03-21T15:51:51.419Z,5.23
2018-03-21T15:54:20.212Z,3.03
2018-03-21T15:56:49.007Z,6.33
2018-03-21T15:59:17.204Z,4.43
2018-03-21T16:01:45.922Z,4.03
2018-03-21T16:04:15.061Z,4.60
2018-03-21T16:06:43.363Z,5.70
2018-03-21T16:09:11.729Z,3.67
2018-03-21T16:11:40.239Z,4.40
2018-03-21T16:14:09.603Z,3.50
2018-03-21T16:16:40.290Z,4.33
2018-03-21T16:19:09.903Z,3.27
2018-03-21T16:21:38.276Z,5.13
2018-03-21T16:24:06.912Z,3.70
2018-03-21T16:26:37.016Z,3.90
2018-03-21T16:29:05.543Z,6.10
2018-03-21T16:31:33.852Z,3.47
2018-03-21T16:34:03.475Z,2.47
2018-03-21T16:36:31.780Z,3.90
2018-03-21T16:39:00.968Z,2.90
2018-03-21T16:41:29.964Z,4.33
2018-03-21T16:43:59.192Z,6.13
2018-03-21T16:46:27.960Z,6.07
2018-03-21T16:49:00.632Z,4.10
2018-03-21T16:51:29.738Z,3.47
2018-03-21T16:53:58.208Z,4.90
2018-03-21T16:56:26.548Z,4.80
2018-03-21T16:58:55.461Z,3.63
2018-03-21T17:01:23.907Z,4.17
2018-03-21T17:03:52.204Z,4.23
2018-03-21T17:06:20.517Z,4.10
2018-03-21T17:08:49.629Z,6.47
2018-03-21T17:11:18.696Z,3.20
2018-03-21T17:13:47.053Z,4.40
2018-03-21T17:16:15.855Z,3.97
2018-03-21T17:18:44.199Z,5.40
2018-03-21T17:21:13.136Z,9.70
2018-03-21T17:23:41.445Z,4.13
2018-03-21T17:26:09.751Z,2.70
2018-03-21T17:28:38.092Z,4.03
2018-03-21T17:31:06.392Z,4.10
2018-03-21T17:33:34.708Z,3.57
2018-03-21T17:36:03.092Z,3.80
2018-03-21T17:38:31.432Z,9.20
2018-03-21T17:40:59.732Z,3.60
2018-03-21T17:43:28.085Z,3.30
2018-03-21T17:45:56.404Z,3.72
2018-03-21T17:48:24.908Z,4.30
2018-03-21T17:50:53.267Z,5.03
2018-03-21T17:53:21.591Z,5.37
2018-03-21T17:55:54.560Z,4.13
2018-03-21T17:58:23.893Z,5.40
2018-03-21T18:00:53.072Z,5.77
2018-03-21T18:03:21.556Z,5.23
2018-03-21T18:05:50.620Z,7.80
2018-03-21T18:08:20.344Z,3.67
2018-03-21T18:10:48.675Z,3.97
2018-03-21T18:13:17.412Z,3.78
2018-03-21T18:15:45.779Z,4.20
2018-03-21T18:18:14.771Z,5.10
2018-03-21T18:20:43.309Z,6.50
2018-03-21T18:23:15.504Z,6.60
2018-03-21T18:25:43.953Z,8.70
2018-03-21T18:28:12.268Z,3.30
2018-03-21T18:30:41.018Z,6.30
2018-03-21T18:33:09.359Z,3.80
2018-03-21T18:35:37.681Z,3.85
2018-03-21T18:38:06.364Z,4.57
2018-03-21T18:40:35.484Z,5.40
2018-03-21T18:43:03.801Z,6.70
2018-03-21T18:45:32.135Z,5.80
2018-03-21T18:48:01.992Z,9.55
2018-03-21T18:50:30.384Z,10.27
2018-03-21T18:52:58.792Z,11.23
2018-03-21T18:55:27.130Z,9.90
2018-03-21T18:57:55.468Z,8.55
2018-03-21T19:00:24.000Z,7.90
2018-03-21T19:02:53.249Z,8.07
2018-03-21T19:05:21.908Z,6.15
2018-03-21T19:07:50.224Z,6.20
2018-03-21T19:10:18.568Z,7.37
2018-03-21T19:12:50.212Z,9.27
2018-03-21T19:15:18.341Z,12.32
2018-03-21T19:17:47.512Z,8.73
2018-03-21T19:20:15.760Z,7.18
2018-03-21T19:22:44.085Z,8.25
2018-03-21T19:25:13.403Z,10.60
2018-03-21T19:27:41.784Z,8.35
2018-03-21T19:30:12.063Z,13.30
2018-03-21T19:32:42.786Z,13.85
2018-03-21T19:35:11.196Z,17.17
2018-03-21T19:37:39.576Z,14.77
2018-03-21T19:40:08.680Z,9.35
2018-03-21T19:42:37.006Z,15.10
2018-03-21T19:45:05.424Z,13.57
2018-03-21T19:47:34.529Z,15.70
2018-03-21T19:50:03.648Z,13.18
2018-03-21T19:52:31.973Z,12.05
2018-03-21T19:55:01.949Z,18.80
2018-03-21T19:57:30.291Z,20.27
2018-03-21T19:59:59.401Z,17.48
2018-03-21T20:02:27.968Z,16.55
2018-03-21T20:04:56.076Z,15.95
2018-03-21T20:07:24.476Z,17.30
2018-03-21T20:09:52.907Z,28.90
2018-03-21T20:12:21.804Z,12.35
2018-03-21T20:14:50.182Z,12.68
2018-03-21T20:17:18.593Z,15.48
2018-03-21T20:19:46.923Z,11.80
2018-03-21T20:22:15.569Z,14.68
2018-03-21T20:24:43.903Z,17.12
2018-03-21T20:27:12.244Z,12.55
2018-03-21T20:29:40.683Z,14.00
2018-03-21T20:32:09.077Z,18.20
2018-03-21T20:34:38.138Z,15.40
2018-03-21T20:37:07.425Z,17.00
2018-03-21T20:39:36.530Z,14.87
2018-03-21T20:42:05.750Z,18.55
2018-03-21T20:44:34.270Z,15.80
2018-03-21T20:47:02.501Z,23.05
2018-03-21T20:49:30.968Z,14.98
2018-03-21T20:51:59.099Z,17.33
2018-03-21T20:54:27.500Z,22.48
2018-03-21T20:56:56.608Z,16.33
2018-03-21T20:59:25.088Z,18.15
2018-03-21T21:01:53.458Z,24.23
2018-03-21T21:04:21.776Z,14.43
2018-03-21T21:06:50.537Z,16.75
2018-03-21T21:09:18.863Z,18.90
2018-03-21T21:11:47.176Z,16.98
2018-03-21T21:14:15.561Z,23.38
2018-03-21T21:16:45.275Z,21.05
2018-03-21T21:19:13.621Z,24.85
2018-03-21T21:21:41.947Z,22.55
2018-03-21T21:24:10.547Z,19.48
2018-03-21T21:26:39.312Z,14.80
2018-03-21T21:29:07.631Z,14.75
2018-03-21T21:31:35.976Z,12.65
2018-03-21T21:34:04.960Z,14.77
2018-03-21T21:36:33.943Z,11.93
2018-03-21T21:39:02.518Z,22.10
2018-03-21T21:41:30.836Z,13.32
2018-03-21T21:43:59.734Z,16.92
2018-03-21T21:46:28.051Z,19.52
2018-03-21T21:48:57.120Z,17.20
2018-03-21T21:51:25.464Z,14.00
2018-03-21T21:53:53.784Z,19.65
2018-03-21T21:56:22.127Z,29.15
2018-03-21T21:58:51.204Z,14.52
2018-03-21T22:01:20.404Z,19.33
2018-03-21T22:03:49.492Z,26.48
2018-03-21T22:06:17.836Z,24.70
2018-03-21T22:08:45.984Z,27.05
2018-03-21T22:11:14.339Z,29.30
2018-03-21T22:13:42.659Z,19.37
2018-03-21T22:16:11.019Z,23.15
2018-03-21T22:18:39.655Z,19.60
2018-03-21T22:21:07.937Z,18.45
2018-03-21T22:23:36.359Z,17.30
2018-03-21T22:26:05.215Z,14.30
2018-03-21T22:28:33.534Z,20.33
2018-03-21T22:31:01.933Z,18.58
2018-03-21T22:33:30.252Z,18.90
2018-03-21T22:35:58.573Z,20.25
2018-03-21T22:38:28.860Z,17.05
2018-03-21T22:40:57.188Z,14.90
2018-03-21T22:43:25.503Z,14.90
2018-03-21T22:45:53.880Z,20.88
2018-03-21T22:48:22.275Z,20.23
2018-03-21T22:50:52.083Z,13.77
2018-03-21T22:53:20.407Z,16.40
2018-03-21T22:55:49.504Z,16.90
2018-03-21T22:58:18.533Z,17.90
2018-03-21T23:00:46.847Z,20.35
2018-03-21T23:03:15.155Z,18.00
2018-03-21T23:05:43.532Z,14.75
2018-03-21T23:08:11.861Z,16.75
2018-03-21T23:10:40.186Z,16.60
2018-03-21T23:13:08.532Z,19.67
2018-03-21T23:15:37.608Z,19.20
2018-03-21T23:18:06.688Z,33.10
2018-03-21T23:20:35.176Z,26.62
2018-03-21T23:23:04.304Z,21.23
2018-03-21T23:25:32.630Z,17.12
2018-03-21T23:28:01.387Z,19.48
2018-03-21T23:30:30.233Z,14.13
2018-03-21T23:32:58.569Z,21.30
2018-03-21T23:35:27.113Z,16.85
2018-03-21T23:37:56.201Z,14.60
2018-03-21T23:40:25.294Z,13.80
2018-03-21T23:42:54.433Z,17.73
2018-03-21T23:45:22.759Z,17.27
2018-03-21T23:47:54.165Z,18.15
2018-03-21T23:50:22.492Z,14.23
2018-03-21T23:52:51.605Z,15.98
2018-03-21T23:55:20.841Z,19.62
2018-03-21T23:57:49.208Z,13.02
